Time;durP1;ratioP1;P1;durP2;ratioP2;P2;SDS_P1;SDS_P2;PMS_P1;PMS_P2;Temp;Humidity;BMP_temperature;BMP_pressure;BME280_temperature;BME280_humidity;BME280_pressure;Samples;Min_cycle;Max_cycle;Signal;HPM_P1;HPM_P2
2021/08/11 00:00:54;;;;;;;10.33;2.60;;;;;;;10.56;76.53;99550.34;1674864;84;21110;-66
2021/08/11 00:03:22;;;;;;;36.65;3.65;;;;;;;10.45;76.54;99546.52;1664621;85;21046;-66
2021/08/11 00:05:49;;;;;;;23.05;3.20;;;;;;;10.34;76.54;99550.12;1659419;85;21042;-66
2021/08/11 00:08:15;;;;;;;8.75;3.42;;;;;;;10.30;76.68;99548.56;1665707;84;21138;-66
2021/08/11 00:10:42;;;;;;;50.57;3.30;;;;;;;10.31;76.79;99547.66;1660676;85;21159;-66
2021/08/11 00:13:09;;;;;;;4.20;2.47;;;;;;;10.33;76.82;99543.19;1671545;85;21288;-66
2021/08/11 00:15:36;;;;;;;3.33;2.80;;;;;;;10.32;76.81;99546.73;1660554;84;20961;-66
2021/08/11 00:18:03;;;;;;;5.75;3.05;;;;;;;10.32;76.91;99549.34;1664539;85;21013;-66
2021/08/11 00:20:30;;;;;;;3.95;3.08;;;;;;;10.29;77.04;99546.88;1670054;84;21503;-66
2021/08/11 00:22:56;;;;;;;4.87;2.87;;;;;;;10.29;77.18;99549.49;1670639;84;21663;-66
2021/08/11 00:25:24;;;;;;;7.40;4.10;;;;;;;10.29;77.23;99537.75;1664019;85;21593;-66
2021/08/11 00:27:50;;;;;;;7.83;3.62;;;;;;;10.30;77.21;99533.74;1653932;84;21603;-66
2021/08/11 00:30:17;;;;;;;8.10;3.23;;;;;;;10.32;77.24;99533.68;1666496;84;21001;-66
2021/08/11 00:32:44;;;;;;;8.13;3.52;;;;;;;10.34;77.38;99534.45;1665587;84;21056;-66
2021/08/11 00:35:11;;;;;;;5.45;3.08;;;;;;;10.35;77.35;99532.69;1666596;85;21004;-67
2021/08/11 00:37:37;;;;;;;12.80;4.10;;;;;;;10.33;77.38;99535.83;1670401;85;21002;-66
2021/08/11 00:40:07;;;;;;;8.55;3.25;;;;;;;10.32;77.42;99543.28;1665661;84;21049;-66
2021/08/11 00:42:35;;;;;;;4.65;3.22;;;;;;;10.30;77.45;99536.35;1662906;84;21067;-66
2021/08/11 00:45:04;;;;;;;4.20;2.52;;;;;;;10.28;77.40;99546.51;1668554;84;22635;-66
2021/08/11 00:47:35;;;;;;;4.22;2.80;;;;;;;10.21;77.42;99546.38;1665695;85;21084;-66
2021/08/11 00:50:08;;;;;;;4.47;3.12;;;;;;;10.13;77.36;99548.51;1661875;84;21676;-66
2021/08/11 00:52:34;;;;;;;6.83;2.60;;;;;;;10.06;77.50;99554.49;1664647;84;21061;-66
2021/08/11 00:55:02;;;;;;;5.17;3.10;;;;;;;10.04;77.58;99549.33;1665215;84;21088;-66
2021/08/11 00:57:29;;;;;;;5.45;3.10;;;;;;;10.03;77.61;99559.39;1666842;85;21132;-66
2021/08/11 00:59:57;;;;;;;8.85;3.70;;;;;;;10.01;77.78;99558.61;1670492;84;20993;-66
2021/08/11 01:02:25;;;;;;;4.45;2.80;;;;;;;10.02;77.87;99557.68;1662318;85;21004;-66
2021/08/11 01:04:57;;;;;;;8.05;3.08;;;;;;;10.01;77.89;99561.69;1669841;84;21025;-66
2021/08/11 01:07:27;;;;;;;3.60;2.58;;;;;;;10.00;77.98;99559.54;1667352;84;21823;-66
2021/08/11 01:09:55;;;;;;;4.20;3.25;;;;;;;9.98;77.93;99561.37;1665723;84;21085;-66
2021/08/11 01:12:26;;;;;;;5.50;2.40;;;;;;;9.98;77.99;99569.19;1665990;85;20957;-66
2021/08/11 01:14:55;;;;;;;5.50;2.47;;;;;;;10.00;77.99;99569.13;1664944;85;21068;-66
2021/08/11 01:17:24;;;;;;;3.45;2.20;;;;;;;10.02;77.98;99565.97;1655975;84;21032;-66
2021/08/11 01:19:51;;;;;;;8.73;2.72;;;;;;;10.03;77.94;99564.61;1670268;84;21009;-66
2021/08/11 01:22:24;;;;;;;6.58;3.15;;;;;;;10.02;77.92;99562.90;1684544;83;21442;-66
2021/08/11 01:25:16;;;;;;;3.42;2.50;;;;;;;10.00;77.92;99563.45;1685593;84;21015;-67
2021/08/11 01:28:08;;;;;;;4.95;3.05;;;;;;;9.98;78.03;99566.59;1683304;83;21653;-67
2021/08/11 01:30:49;;;;;;;4.72;3.02;;;;;;;10.01;78.28;99564.30;1685072;83;21035;-67
2021/08/11 01:33:45;;;;;;;9.68;3.62;;;;;;;10.09;78.52;99560.40;1632418;86;21155;-66
2021/08/11 01:36:32;;;;;;;6.07;3.13;;;;;;;10.16;78.56;99566.62;1631380;86;21086;-66
2021/08/11 01:39:10;;;;;;;3.45;2.87;;;;;;;10.18;78.49;99572.16;1614768;86;21109;-66
2021/08/11 01:41:42;;;;;;;3.83;2.77;;;;;;;10.17;78.47;99563.11;1635170;86;21052;-66
2021/08/11 01:44:11;;;;;;;3.87;3.05;;;;;;;10.15;78.45;99555.81;1629580;85;21543;-67
2021/08/11 01:46:41;;;;;;;4.67;2.60;;;;;;;10.15;78.55;99564.94;1630444;86;21107;-67
2021/08/11 01:49:12;;;;;;;5.03;2.80;;;;;;;10.13;78.47;99568.08;1631794;85;21284;-66
2021/08/11 01:51:43;;;;;;;4.40;2.45;;;;;;;10.16;78.62;99571.84;1630373;85;21092;-66
2021/08/11 01:54:11;;;;;;;5.15;3.50;;;;;;;10.17;78.60;99565.72;1635199;86;21041;-66
2021/08/11 01:56:41;;;;;;;3.90;2.62;;;;;;;10.14;78.63;99569.75;1634769;86;21854;-67
2021/08/11 01:59:10;;;;;;;3.95;2.80;;;;;;;10.12;78.71;99559.87;1634688;86;21059;-67
2021/08/11 02:01:39;;;;;;;4.60;3.25;;;;;;;10.11;78.78;99565.98;1636618;85;21115;-67
2021/08/11 02:04:08;;;;;;;5.28;3.52;;;;;;;10.14;78.89;99560.63;1632010;85;20991;-67
2021/08/11 02:06:39;;;;;;;4.80;3.25;;;;;;;10.22;79.09;99553.27;1631253;85;21150;-67
2021/08/11 02:09:06;;;;;;;5.10;3.42;;;;;;;10.29;79.15;99552.94;1633852;85;21593;-67
2021/08/11 02:11:40;;;;;;;4.45;2.98;;;;;;;10.38;79.13;99545.58;1682377;83;27118;-67
2021/08/11 02:14:10;;;;;;;5.15;3.17;;;;;;;10.41;79.10;99538.44;1682554;83;21213;-67
2021/08/11 02:16:40;;;;;;;4.97;2.80;;;;;;;10.47;79.23;99537.29;1682074;83;20981;-66
2021/08/11 02:19:10;;;;;;;6.97;3.58;;;;;;;10.52;79.19;99549.19;1683334;83;21032;-67
2021/08/11 02:21:41;;;;;;;4.50;2.70;;;;;;;10.56;79.13;99554.26;1662524;84;21537;-67
2021/08/11 02:24:11;;;;;;;4.10;2.58;;;;;;;10.50;78.97;99554.97;1685795;82;21111;-67
2021/08/11 02:26:52;;;;;;;3.25;2.08;;;;;;;10.49;79.01;99544.13;1686124;82;22385;-67
2021/08/11 02:29:30;;;;;;;3.47;2.45;;;;;;;10.46;78.89;99546.89;1680263;83;20977;-66
2021/08/11 02:32:19;;;;;;;3.35;2.20;;;;;;;10.42;78.92;99545.37;1685674;83;22607;-65
2021/08/11 02:35:03;;;;;;;5.35;2.72;;;;;;;10.39;79.09;99559.87;1683355;83;21611;-66
2021/08/11 02:37:50;;;;;;;5.03;2.80;;;;;;;10.38;79.26;99559.47;1684167;84;20993;-66
2021/08/11 02:40:21;;;;;;;2.70;2.08;;;;;;;10.37;79.29;99557.80;1681533;83;21220;-66
2021/08/11 02:43:10;;;;;;;4.15;3.10;;;;;;;10.42;79.47;99553.20;1683835;84;21120;-67
2021/08/11 02:45:40;;;;;;;5.75;2.95;;;;;;;10.50;79.58;99547.14;1679689;83;20989;-66
2021/08/11 02:48:11;;;;;;;6.47;3.40;;;;;;;10.58;79.58;99548.51;1684900;83;21000;-66
2021/08/11 02:50:40;;;;;;;5.85;2.90;;;;;;;10.63;79.59;99546.52;1682471;84;21036;-66
2021/08/11 02:53:08;;;;;;;3.72;3.12;;;;;;;10.65;79.63;99543.37;1686421;84;21546;-66
2021/08/11 02:55:37;;;;;;;5.15;2.90;;;;;;;10.71;79.76;99548.28;1687888;83;21027;-66
2021/08/11 02:58:05;;;;;;;7.83;3.02;;;;;;;10.78;79.78;99546.20;1683634;83;21109;-66
2021/08/11 03:00:32;;;;;;;4.12;2.95;;;;;;;10.81;79.75;99541.69;1684072;83;20983;-66
2021/08/11 03:02:58;;;;;;;3.90;3.05;;;;;;;10.85;79.80;99536.67;1684915;84;21365;-66
2021/08/11 03:05:25;;;;;;;3.10;2.73;;;;;;;10.89;79.81;99536.87;1683239;83;22207;-66
2021/08/11 03:07:52;;;;;;;3.70;2.60;;;;;;;10.96;79.86;99538.27;1684041;83;21550;-66
2021/08/11 03:10:19;;;;;;;3.90;2.90;;;;;;;11.00;79.80;99538.10;1686536;83;21803;-66
2021/08/11 03:12:47;;;;;;;5.83;3.97;;;;;;;11.04;79.92;99538.34;1684736;83;20944;-67
2021/08/11 03:15:15;;;;;;;3.65;2.72;;;;;;;11.08;79.88;99534.16;1683766;83;22616;-67
2021/08/11 03:17:44;;;;;;;4.37;2.72;;;;;;;11.10;79.86;99535.41;1681520;84;21991;-67
2021/08/11 03:20:12;;;;;;;5.65;3.20;;;;;;;11.13;79.95;99539.16;1685499;83;21044;-66
2021/08/11 03:22:38;;;;;;;6.47;3.37;;;;;;;11.19;80.04;99534.45;1662521;84;20993;-66
2021/08/11 03:25:07;;;;;;;5.30;3.07;;;;;;;11.26;80.02;99537.59;1660584;85;21069;-66
2021/08/11 03:27:34;;;;;;;3.80;2.70;;;;;;;11.33;80.08;99538.94;1658368;84;20973;-66
2021/08/11 03:30:00;;;;;;;4.23;2.73;;;;;;;11.40;80.04;99532.48;1657420;85;21986;-66
2021/08/11 03:32:27;;;;;;;7.80;3.62;;;;;;;11.46;80.01;99531.77;1659729;85;21555;-66
2021/08/11 03:34:53;;;;;;;5.03;2.72;;;;;;;11.50;80.01;99529.36;1660011;84;21031;-66
2021/08/11 03:37:20;;;;;;;4.15;3.00;;;;;;;11.51;79.98;99524.06;1662389;85;20954;-67
2021/08/11 03:39:46;;;;;;;4.05;3.00;;;;;;;11.51;79.93;99521.45;1659643;84;21129;-66
2021/08/11 03:42:13;;;;;;;4.70;2.60;;;;;;;11.55;80.03;99524.73;1657872;85;22398;-66
2021/08/11 03:44:40;;;;;;;4.00;2.63;;;;;;;11.64;80.12;99520.30;1663153;85;21492;-66
2021/08/11 03:47:06;;;;;;;3.50;2.25;;;;;;;11.83;80.31;99522.75;1657081;84;21205;-66
2021/08/11 03:49:33;;;;;;;3.80;2.35;;;;;;;12.08;80.29;99518.33;1658232;85;21013;-67
2021/08/11 03:52:00;;;;;;;3.70;2.70;;;;;;;12.26;80.15;99521.66;1657192;85;21100;-66
2021/08/11 03:54:27;;;;;;;3.17;2.70;;;;;;;12.38;80.08;99526.20;1635130;85;20981;-66
2021/08/11 03:56:53;;;;;;;3.50;2.67;;;;;;;12.49;79.97;99526.86;1656323;85;22003;-66
2021/08/11 03:59:20;;;;;;;3.50;2.70;;;;;;;12.51;79.74;99530.25;1640355;85;21528;-66
2021/08/11 04:01:53;;;;;;;3.95;2.65;;;;;;;12.46;79.69;99528.36;1664398;85;20926;-66
2021/08/11 04:04:20;;;;;;;5.65;2.87;;;;;;;12.47;79.89;99528.28;1655752;84;21155;-66
2021/08/11 04:06:48;;;;;;;8.07;2.87;;;;;;;12.52;79.97;99530.64;1658426;85;21981;-66
2021/08/11 04:09:15;;;;;;;5.45;2.90;;;;;;;12.57;80.00;99536.42;1655596;85;21225;-66
2021/08/11 04:11:42;;;;;;;4.97;2.37;;;;;;;12.61;80.09;99534.50;1659556;85;24462;-66
2021/08/11 04:14:08;;;;;;;4.70;2.93;;;;;;;12.62;79.95;99537.01;1656620;85;21016;-66
2021/08/11 04:16:36;;;;;;;2.75;2.37;;;;;;;12.56;80.17;99523.44;1655498;84;21677;-67
2021/08/11 04:19:02;;;;;;;8.30;3.07;;;;;;;12.69;80.26;99539.66;1657673;84;21478;-66
2021/08/11 04:21:29;;;;;;;4.12;2.65;;;;;;;12.81;80.29;99542.48;1640243;84;20954;-66
2021/08/11 04:23:56;;;;;;;4.08;2.80;;;;;;;12.95;80.31;99549.05;1662486;84;20981;-65
2021/08/11 04:26:23;;;;;;;5.50;2.70;;;;;;;13.04;80.12;99540.63;1686797;83;21163;-66
2021/08/11 04:28:49;;;;;;;3.98;3.10;;;;;;;13.18;80.28;99538.02;1683458;83;20969;-68
2021/08/11 04:31:16;;;;;;;5.73;2.70;;;;;;;13.25;80.09;99544.19;1685914;84;21507;-66
2021/08/11 04:33:44;;;;;;;6.33;2.58;;;;;;;13.30;80.00;99546.09;1686003;83;20973;-66
2021/08/11 04:36:10;;;;;;;;;;;;;;;13.32;79.78;99548.17;1685397;83;21066;-66
2021/08/11 04:38:37;;;;;;;5.77;3.17;;;;;;;13.35;79.93;99553.22;1685208;83;20701;-66
2021/08/11 04:41:04;;;;;;;5.67;2.58;;;;;;;13.45;80.07;99553.04;1682291;83;21605;-66
2021/08/11 04:43:30;;;;;;;15.30;2.70;;;;;;;13.47;79.89;99551.17;1682914;84;21530;-65
2021/08/11 04:45:57;;;;;;;4.77;3.43;;;;;;;13.41;79.96;99543.66;1684233;83;21083;-66
2021/08/11 04:48:24;;;;;;;5.85;2.77;;;;;;;13.41;79.96;99543.66;1684763;83;21370;-66
2021/08/11 04:50:50;;;;;;;4.63;2.70;;;;;;;13.58;79.90;99559.22;1685510;83;21044;-66
2021/08/11 04:53:17;;;;;;;5.65;2.30;;;;;;;13.70;80.15;99556.77;1684336;84;20938;-66
2021/08/11 04:55:44;;;;;;;6.93;2.87;;;;;;;13.90;80.42;99564.21;1682537;83;21965;-67
2021/08/11 04:58:10;;;;;;;6.10;3.05;;;;;;;14.05;80.29;99563.22;1681932;83;21655;-66
2021/08/11 05:00:37;;;;;;;7.08;2.98;;;;;;;14.23;80.30;99563.00;1683003;83;22070;-66
2021/08/11 05:03:04;;;;;;;7.50;2.85;;;;;;;14.40;80.21;99565.84;1683483;83;20972;-66
2021/08/11 05:05:31;;;;;;;10.72;2.60;;;;;;;14.53;80.19;99568.88;1682029;83;21552;-66
2021/08/11 05:07:58;;;;;;;4.60;2.95;;;;;;;14.63;79.89;99573.55;1681960;82;21063;-66
2021/08/11 05:10:25;;;;;;;3.40;2.60;;;;;;;14.71;79.86;99571.25;1681505;83;21084;-66
2021/08/11 05:12:52;;;;;;;8.35;3.67;;;;;;;14.80;79.93;99579.83;1688328;83;21513;-66
2021/08/11 05:15:19;;;;;;;10.85;3.20;;;;;;;14.93;79.96;99579.38;1683169;84;21040;-66
2021/08/11 05:17:46;;;;;;;9.40;3.25;;;;;;;15.07;79.82;99580.20;1703861;82;21498;-66
2021/08/11 05:20:14;;;;;;;18.10;3.85;;;;;;;15.19;79.75;99582.02;1684635;82;21461;-66
2021/08/11 05:22:42;;;;;;;17.07;4.58;;;;;;;15.33;79.85;99574.02;1682505;83;21095;-67
2021/08/11 05:25:10;;;;;;;4.58;3.40;;;;;;;15.61;79.99;99576.04;1683259;84;21628;-66
2021/08/11 05:27:37;;;;;;;4.83;3.83;;;;;;;16.07;80.16;99571.45;1685640;83;21158;-66
2021/08/11 05:30:15;;;;;;;15.35;5.70;;;;;;;16.68;80.01;99574.84;1684616;83;21549;-66
2021/08/11 05:32:42;;;;;;;44.05;7.95;;;;;;;17.36;79.53;99575.00;1683341;84;21205;-67
2021/08/11 05:35:09;;;;;;;12.85;6.03;;;;;;;17.72;79.12;99578.36;1685261;83;20968;-66
2021/08/11 05:37:41;;;;;;;28.20;8.53;;;;;;;17.87;78.45;99569.27;1684158;83;21142;-66
2021/08/11 05:40:11;;;;;;;11.48;4.37;;;;;;;17.71;78.10;99571.42;1661497;85;21000;-67
2021/08/11 05:42:38;;;;;;;23.83;8.73;;;;;;;17.40;77.92;99565.91;1685642;83;20988;-66
2021/08/11 05:45:06;;;;;;;22.00;8.58;;;;;;;17.12;78.04;99574.63;1684665;83;21860;-66
2021/08/11 05:47:33;;;;;;;21.15;9.25;;;;;;;16.89;78.18;99575.08;1683471;84;21124;-66
2021/08/11 05:50:00;;;;;;;7.62;4.20;;;;;;;16.66;78.24;99565.38;1684441;83;20991;-66
2021/08/11 05:52:27;;;;;;;;;;;;;;;16.51;78.34;99570.00;1686371;83;20997;-66
2021/08/11 05:54:54;;;;;;;12.60;5.47;;;;;;;16.32;78.38;99567.88;1686241;82;20513;-66
2021/08/11 05:57:20;;;;;;;;;;;;;;;16.32;78.76;99571.34;1684378;83;21627;-66
2021/08/11 05:59:48;;;;;;;5.60;3.70;;;;;;;16.39;78.58;99568.28;1684219;83;20170;-66
2021/08/11 06:02:15;;;;;;;6.40;3.70;;;;;;;16.42;78.44;99570.69;1684117;84;21031;-66
2021/08/11 06:04:42;;;;;;;9.50;4.22;;;;;;;16.69;78.91;99563.37;1632186;86;20988;-66
2021/08/11 06:07:09;;;;;;;7.25;4.28;;;;;;;17.29;78.81;99565.91;1655194;85;21657;-67
2021/08/11 06:09:36;;;;;;;6.95;3.87;;;;;;;18.05;78.87;99567.77;1684531;84;21515;-67
2021/08/11 06:12:05;;;;;;;10.82;3.83;;;;;;;18.77;78.43;99563.69;1687978;84;21008;-67
2021/08/11 06:14:31;;;;;;;7.35;3.85;;;;;;;19.11;77.69;99563.48;1684107;83;21033;-67
2021/08/11 06:16:58;;;;;;;7.80;3.52;;;;;;;19.41;77.23;99560.84;1684417;83;21154;-67
2021/08/11 06:19:25;;;;;;;3.90;3.45;;;;;;;19.36;76.83;99555.11;1684384;83;20988;-67
2021/08/11 06:21:51;;;;;;;11.55;4.08;;;;;;;19.55;76.39;99552.16;1683806;83;21113;-67
2021/08/11 06:24:25;;;;;;;8.13;3.72;;;;;;;19.53;76.38;99558.11;1685824;83;21564;-67
2021/08/11 06:26:52;;;;;;;4.75;3.65;;;;;;;20.17;77.53;99559.06;1680831;83;21000;-67
2021/08/11 06:29:19;;;;;;;5.95;4.03;;;;;;;21.10;77.30;99560.27;1685241;83;21027;-68
2021/08/11 06:31:45;;;;;;;10.43;4.33;;;;;;;22.11;77.07;99548.42;1682913;83;21099;-67
2021/08/11 06:34:12;;;;;;;4.65;3.77;;;;;;;22.92;76.03;99550.98;1684146;83;21964;-67
2021/08/11 06:36:38;;;;;;;6.28;3.85;;;;;;;23.53;75.16;99551.03;1684328;83;21865;-67
2021/08/11 06:39:05;;;;;;;6.00;4.05;;;;;;;23.89;74.89;99539.19;1685361;84;20936;-67
2021/08/11 06:41:32;;;;;;;9.05;4.20;;;;;;;24.19;74.18;99542.23;1684332;83;20969;-67
2021/08/11 06:43:59;;;;;;;6.47;3.60;;;;;;;24.57;73.78;99538.64;1684420;83;21043;-67
2021/08/11 06:46:25;;;;;;;7.58;3.33;;;;;;;25.00;73.46;99544.59;1684066;84;21490;-67
2021/08/11 06:48:54;;;;;;;5.12;3.10;;;;;;;25.58;73.67;99536.77;1683547;83;21613;-68
2021/08/11 06:51:20;;;;;;;5.85;3.10;;;;;;;25.87;72.30;99537.99;1686278;83;21038;-67
2021/08/11 06:53:47;;;;;;;4.17;2.95;;;;;;;25.72;71.41;99544.56;1657697;85;21660;-67
2021/08/11 06:56:14;;;;;;;4.35;3.15;;;;;;;25.21;70.15;99540.91;1655859;84;20998;-67
2021/08/11 06:58:41;;;;;;;4.95;3.20;;;;;;;24.58;70.21;99543.47;1647553;85;21685;-67
2021/08/11 07:01:08;;;;;;;3.58;2.87;;;;;;;24.17;70.63;99544.25;1653843;85;21681;-67
2021/08/11 07:03:40;;;;;;;4.67;2.80;;;;;;;24.54;71.69;99546.98;1759464;78;20982;-67
2021/08/11 07:06:08;;;;;;;6.53;3.22;;;;;;;24.87;69.76;99544.27;1760713;79;20964;-66
2021/08/11 07:08:35;;;;;;;6.25;3.10;;;;;;;24.88;70.38;99544.63;1761718;79;20982;-67
2021/08/11 07:11:01;;;;;;;;;;;;;;;24.92;69.86;99547.27;1763402;80;21151;-67
2021/08/11 07:13:29;;;;;;;3.22;2.92;;;;;;;25.05;69.23;99547.59;1763026;80;20172;-68
2021/08/11 07:15:55;;;;;;;4.78;3.20;;;;;;;25.18;69.34;99543.93;1762154;80;20954;-66
2021/08/11 07:18:22;;;;;;;;;;;;;;;25.06;68.02;99550.59;1766494;81;21022;-67
2021/08/11 07:20:49;;;;;;;7.10;2.80;;;;;;;24.75;67.50;99557.14;1763942;79;20125;-68
2021/08/11 07:23:15;;;;;;;6.42;3.65;;;;;;;24.19;67.25;99546.73;1762678;79;21044;-67
2021/08/11 07:25:42;;;;;;;;;;;;;;;23.48;66.83;99554.66;1766936;80;21574;-66
2021/08/11 07:28:11;;;;;;;5.70;2.98;;;;;;;23.00;67.25;99560.39;1762316;79;20097;-69
2021/08/11 07:30:37;;;;;;;4.87;3.00;;;;;;;22.67;67.50;99559.77;1762593;79;21009;-68
2021/08/11 07:33:07;;;;;;;4.87;2.80;;;;;;;22.44;67.57;99561.58;1763875;80;20891;-69
2021/08/11 07:35:36;;;;;;;4.70;2.92;;;;;;;22.27;67.38;99563.75;1762052;78;21857;-68
2021/08/11 07:38:04;;;;;;;4.15;3.00;;;;;;;21.75;66.72;99566.97;1762311;80;20966;-68
2021/08/11 07:40:31;;;;;;;4.08;3.02;;;;;;;21.33;67.00;99565.23;1761122;80;21069;-68
2021/08/11 07:42:59;;;;;;;3.85;2.92;;;;;;;21.02;67.04;99572.09;1760576;80;20940;-68
2021/08/11 07:45:29;;;;;;;4.25;3.30;;;;;;;20.85;67.44;99567.53;1762349;80;21484;-67
2021/08/11 07:47:55;;;;;;;9.08;3.65;;;;;;;20.61;67.13;99572.77;1761950;81;21177;-68
2021/08/11 07:50:25;;;;;;;7.95;3.12;;;;;;;20.26;66.99;99575.45;1761269;79;21050;-68
2021/08/11 07:53:01;;;;;;;4.72;2.80;;;;;;;20.19;67.68;99574.32;1764052;81;21009;-65
2021/08/11 07:55:28;;;;;;;6.10;3.30;;;;;;;20.28;67.34;99576.16;1762963;79;21018;-67
2021/08/11 07:57:54;;;;;;;4.92;3.15;;;;;;;20.25;67.25;99581.75;1760317;79;20999;-67
2021/08/11 08:00:22;;;;;;;4.12;3.22;;;;;;;20.07;66.79;99580.73;1754916;79;21098;-67
2021/08/11 08:02:52;;;;;;;15.15;4.75;;;;;;;19.92;67.23;99584.75;1780808;77;21031;-67
2021/08/11 08:05:19;;;;;;;9.78;3.52;;;;;;;19.73;67.13;99586.36;1809647;77;20945;-67
2021/08/11 08:07:46;;;;;;;15.95;4.50;;;;;;;19.70;67.57;99587.13;1775156;79;20930;-67
2021/08/11 08:10:13;;;;;;;39.27;7.53;;;;;;;19.83;67.69;99589.05;1791576;78;20950;-67
2021/08/11 08:12:42;;;;;;;64.47;11.28;;;;;;;20.09;68.01;99592.05;1810166;77;21078;-68
2021/08/11 08:15:12;;;;;;;40.15;14.38;;;;;;;20.56;68.29;99584.31;1818210;77;21390;-68
2021/08/11 08:17:40;;;;;;;37.33;7.70;;;;;;;21.17;68.97;99594.58;1812005;77;20956;-66
2021/08/11 08:20:08;;;;;;;18.02;8.13;;;;;;;21.27;66.85;99595.03;1811212;77;21012;-67
2021/08/11 08:22:35;;;;;;;14.63;5.95;;;;;;;21.15;66.80;99595.20;1805144;77;20962;-67
2021/08/11 08:25:03;;;;;;;39.10;9.23;;;;;;;21.01;66.60;99591.67;1755606;79;21027;-66
2021/08/11 08:27:30;;;;;;;47.25;12.78;;;;;;;20.84;66.67;99589.71;1807685;77;21317;-68
2021/08/11 08:29:58;;;;;;;31.00;12.95;;;;;;;20.82;67.12;99591.69;1821165;77;22194;-68
2021/08/11 08:32:28;;;;;;;62.13;14.45;;;;;;;20.96;67.17;99591.25;1807426;77;21849;-69
2021/08/11 08:34:56;;;;;;;41.65;10.93;;;;;;;21.18;67.24;99588.77;1814662;77;20956;-67
2021/08/11 08:37:38;;;;;;;56.88;8.88;;;;;;;21.26;66.78;99589.35;1775218;79;21189;-67
2021/08/11 08:40:11;;;;;;;23.50;4.25;;;;;;;21.12;66.71;99591.50;1811718;77;21003;-67
2021/08/11 08:42:43;;;;;;;55.67;6.78;;;;;;;20.83;66.07;99588.05;1775022;79;21012;-68
2021/08/11 08:45:13;;;;;;;24.23;5.10;;;;;;;20.68;66.78;99591.13;1819632;77;21436;-68
2021/08/11 08:47:41;;;;;;;5.62;3.08;;;;;;;21.11;67.51;99592.47;1793564;78;20906;-68
2021/08/11 08:50:10;;;;;;;4.53;2.98;;;;;;;21.56;66.24;99575.86;1810025;77;22225;-67
2021/08/11 08:52:38;;;;;;;8.28;3.15;;;;;;;21.58;65.89;99579.22;1810466;77;21120;-67
2021/08/11 08:55:06;;;;;;;9.95;4.22;;;;;;;21.50;66.20;99580.43;1810470;77;20977;-68
2021/08/11 08:57:35;;;;;;;8.83;4.30;;;;;;;21.66;66.42;99580.64;1811900;77;20909;-67
2021/08/11 09:00:08;;;;;;;6.90;3.35;;;;;;;21.85;66.15;99588.19;1811544;77;21016;-66
2021/08/11 09:02:41;;;;;;;3.65;2.62;;;;;;;22.03;66.33;99591.70;1771628;80;21114;-68
2021/08/11 09:05:13;;;;;;;5.92;3.30;;;;;;;22.44;66.31;99592.17;1768871;80;20957;-68
2021/08/11 09:07:47;;;;;;;14.45;3.00;;;;;;;22.56;65.48;99586.95;1742955;81;21092;-68
2021/08/11 09:10:30;;;;;;;10.58;2.80;;;;;;;22.93;67.15;99572.60;1748237;80;21101;-67
2021/08/11 09:13:05;;;;;;;9.88;3.25;;;;;;;23.36;66.37;99582.91;1752525;80;20884;-67
2021/08/11 09:15:41;;;;;;;3.85;2.27;;;;;;;23.59;64.74;99585.03;1768642;79;21088;-68
2021/08/11 09:18:26;;;;;;;8.10;2.22;;;;;;;23.78;65.42;99591.47;1763692;79;20978;-68
2021/08/11 09:21:09;;;;;;;5.20;2.67;;;;;;;24.28;65.14;99581.28;1768285;79;21546;-69
2021/08/11 09:23:49;;;;;;;5.92;2.30;;;;;;;24.50;64.42;99587.83;1770111;79;20990;-67
2021/08/11 09:26:17;;;;;;;4.28;1.65;;;;;;;24.25;62.79;99594.92;1766858;79;21539;-69
2021/08/11 09:28:47;;;;;;;6.08;1.40;;;;;;;23.10;61.94;99614.03;1767506;79;21167;-68
2021/08/11 09:31:30;;;;;;;4.22;1.67;;;;;;;22.00;62.02;99615.94;1765467;79;21054;-68
2021/08/11 09:34:07;;;;;;;4.65;1.60;;;;;;;21.03;62.06;99624.69;1760772;79;20950;-68
2021/08/11 09:36:49;;;;;;;7.33;1.70;;;;;;;19.99;62.38;99630.92;1753605;79;21523;-68
2021/08/11 09:39:12;;;;;;;9.23;1.67;;;;;;;19.31;62.89;99626.14;1767057;79;20919;-67
2021/08/11 09:42:02;;;;;;;18.12;2.27;;;;;;;18.89;63.34;99636.72;1770482;79;21114;-68
2021/08/11 09:44:35;;;;;;;12.28;2.47;;;;;;;18.55;63.53;99634.19;1766517;79;20970;-68
2021/08/11 09:47:14;;;;;;;8.13;2.92;;;;;;;18.26;63.63;99634.38;1735893;81;21028;-67
2021/08/11 09:49:41;;;;;;;11.22;2.52;;;;;;;17.96;63.83;99634.56;1762896;80;21522;-69
2021/08/11 09:52:08;;;;;;;12.00;1.82;;;;;;;17.77;64.17;99632.50;1734063;81;20977;-68
2021/08/11 09:54:34;;;;;;;3.02;1.67;;;;;;;17.70;64.23;99633.09;1765682;79;22304;-69
2021/08/11 09:57:15;;;;;;;9.55;1.80;;;;;;;17.59;64.43;99634.78;1737435;81;21057;-68
2021/08/11 10:02:51;;;;;;;8.03;1.92;;;;;;;17.75;65.23;99625.65;1810918;76;22727;-67
2021/08/11 10:05:39;;;;;;;41.55;3.70;;;;;;;17.91;65.52;99638.53;1810733;77;20924;-68
2021/08/11 10:08:08;;;;;;;10.97;3.00;;;;;;;18.27;65.78;99638.72;1818227;77;21186;-67
2021/08/11 10:10:49;;;;;;;12.58;2.75;;;;;;;18.73;66.01;99636.28;1793539;78;21783;-68
2021/08/11 10:13:21;;;;;;;21.82;2.33;;;;;;;19.25;66.13;99629.31;1816923;77;20937;-67
2021/08/11 10:15:49;;;;;;;6.55;2.08;;;;;;;19.79;66.31;99636.16;1809865;77;21016;-67
2021/08/11 10:18:25;;;;;;;4.92;2.37;;;;;;;20.29;66.33;99624.72;1821082;77;20979;-69
2021/08/11 10:21:01;;;;;;;8.10;3.03;;;;;;;20.93;66.57;99626.04;1816028;77;21055;-68
2021/08/11 10:23:28;;;;;;;4.83;2.60;;;;;;;21.14;65.71;99618.72;1810732;78;20950;-69
2021/08/11 10:25:55;;;;;;;5.78;2.33;;;;;;;21.26;65.74;99623.88;1820473;77;20961;-68
2021/08/11 10:28:24;;;;;;;4.08;2.17;;;;;;;21.37;65.61;99617.09;1815383;77;21027;-69
2021/08/11 10:30:53;;;;;;;5.65;2.30;;;;;;;21.35;64.97;99621.70;1808853;77;21580;-68
2021/08/11 10:33:21;;;;;;;6.45;2.33;;;;;;;21.06;65.02;99625.27;1819696;77;20933;-68
2021/08/11 10:35:50;;;;;;;3.85;1.95;;;;;;;20.60;64.73;99630.78;1813399;77;20963;-68
2021/08/11 10:38:17;;;;;;;3.77;1.50;;;;;;;20.24;64.94;99638.38;1820178;77;21150;-69
2021/08/11 10:40:52;;;;;;;3.33;1.87;;;;;;;19.95;64.87;99637.48;1812388;77;21629;-69
2021/08/11 10:43:21;;;;;;;2.12;1.35;;;;;;;19.78;65.52;99645.08;1809240;77;21586;-69
2021/08/11 10:45:59;;;;;;;2.77;1.80;;;;;;;20.02;65.82;99636.78;1813056;77;22586;-69
2021/08/11 10:48:25;;;;;;;2.95;1.90;;;;;;;20.18;65.53;99642.07;1813904;77;20932;-69
2021/08/11 10:50:52;;;;;;;;;;;;;;;20.25;65.46;99641.86;1816394;77;20917;-69
2021/08/11 10:54:23;;;;;;;4.87;1.82;;;;;;;20.58;65.78;99636.70;1867068;74;22813;-67
2021/08/11 10:56:59;;;;;;;7.12;5.45;;;;;;;20.66;65.61;99646.14;1835938;75;21017;-67
2021/08/11 10:59:29;;;;;;;2.87;2.20;;;;;;;20.85;65.78;99648.46;1832820;76;21924;-66
2021/08/11 11:02:18;;;;;;;5.55;1.85;;;;;;;21.00;65.82;99644.39;1840567;76;21142;-67
2021/08/11 11:04:46;;;;;;;2.87;1.70;;;;;;;21.51;66.24;99644.55;1662858;84;21072;-67
2021/08/11 11:07:18;;;;;;;2.67;1.72;;;;;;;21.97;65.88;99642.81;1669681;84;20976;-67
2021/08/11 11:09:48;;;;;;;2.72;1.52;;;;;;;22.28;65.84;99638.55;1651181;84;21706;-68
2021/08/11 11:12:23;;;;;;;3.22;1.65;;;;;;;22.56;65.35;99641.50;1625847;85;21643;-68
2021/08/11 11:14:57;;;;;;;2.95;1.67;;;;;;;22.61;65.13;99637.56;1647207;85;20955;-69
2021/08/11 11:17:27;;;;;;;10.88;2.85;;;;;;;22.55;64.96;99638.50;1643478;85;21641;-68
2021/08/11 11:21:37;;;;;;;44.15;8.90;;;;;;;22.23;63.99;99642.14;1832200;76;23413;-67
2021/08/11 11:24:04;;;;;;;85.65;11.73;;;;;;;21.87;69.31;99634.91;1812793;78;21039;-67
2021/08/11 11:26:35;;;;;;;330.83;55.33;;;;;;;21.98;65.43;99638.33;1803650;78;22129;-67
2021/08/11 11:29:11;;;;;;;49.58;14.00;;;;;;;22.20;65.24;99639.79;1816770;77;21549;-66
2021/08/11 11:31:52;;;;;;;74.30;13.40;;;;;;;22.32;64.82;99641.23;1814347;78;21519;-68
2021/08/11 11:34:35;;;;;;;146.93;25.97;;;;;;;22.27;64.34;99643.53;1819143;76;20954;-67
2021/08/11 11:37:07;;;;;;;101.58;14.90;;;;;;;22.05;64.45;99640.26;1814925;76;21051;-69
2021/08/11 11:39:51;;;;;;;135.48;19.90;;;;;;;21.95;64.02;99628.83;1815762;78;21694;-68
2021/08/11 11:42:31;;;;;;;86.63;15.93;;;;;;;22.25;65.01;99640.19;1819510;78;20986;-68
2021/08/11 11:45:01;;;;;;;73.78;17.23;;;;;;;22.49;64.22;99648.42;1822750;78;20938;-68
2021/08/11 11:47:46;;;;;;;55.58;10.60;;;;;;;22.45;63.96;99657.68;1815469;78;20981;-68
2021/08/11 11:50:33;;;;;;;150.55;26.52;;;;;;;22.49;63.61;99661.73;1817753;78;20996;-68